U S A F Academy, Colorado
Current Conditions -  °F | °C
As of 5:56 PM on Saturday 20 Dec 2014 (Local Time) from KSHM Reporting Station
Few Clouds Few Clouds  
Wind Chill:   Ceiling: Unl
Heat Index:   Visibility: 10mi
Dew Point: -9°   Wind: 1mph
Humidity: 44%   Direction: 360°N
Pressure: 29.96"   Gusts: NA
Location:  38.8247°N, 104.562°W
Report Text: KSHM 210056Z AUTO 36001KT 10SM FEW090 02/M09 A2996 RMK AO2 SLP180 T00231090
Loading
Personal Weather Stations






























Interactive Weather Map New forecast layout! Learn more

10-Day Weather Forecast

Advertisements
Track Severe Weather on mobile